sensor_id;sensor_type;location;lat;lon;timestamp;pressure;altitude;pressure_sealevel;temperature;humidity
77086;BME280;66014;53.134;18.006;2023-07-28T00:02:10;100001.48;;;18.29;53.95
77086;BME280;66014;53.134;18.006;2023-07-28T00:04:37;99995.52;;;18.25;53.92
77086;BME280;66014;53.134;18.006;2023-07-28T00:07:04;99993.90;;;18.22;54.13
77086;BME280;66014;53.134;18.006;2023-07-28T00:09:31;99987.11;;;18.19;54.42
77086;BME280;66014;53.134;18.006;2023-07-28T00:11:58;99988.71;;;18.16;54.27
77086;BME280;66014;53.134;18.006;2023-07-28T00:14:25;99988.10;;;18.14;54.38
77086;BME280;66014;53.134;18.006;2023-07-28T00:16:52;99979.17;;;18.12;54.74
77086;BME280;66014;53.134;18.006;2023-07-28T00:19:18;99983.05;;;18.09;54.81
77086;BME280;66014;53.134;18.006;2023-07-28T00:21:50;99982.59;;;18.07;54.85
77086;BME280;66014;53.134;18.006;2023-07-28T00:24:17;99985.23;;;18.06;54.76
77086;BME280;66014;53.134;18.006;2023-07-28T00:26:43;99981.20;;;18.06;55.02
77086;BME280;66014;53.134;18.006;2023-07-28T00:29:09;99979.70;;;18.05;55.13
77086;BME280;66014;53.134;18.006;2023-07-28T00:31:35;99982.84;;;18.03;55.37
77086;BME280;66014;53.134;18.006;2023-07-28T00:34:02;99980.44;;;18.01;55.60
77086;BME280;66014;53.134;18.006;2023-07-28T00:36:28;99981.52;;;17.99;55.74
77086;BME280;66014;53.134;18.006;2023-07-28T00:38:54;99985.11;;;17.98;55.69
77086;BME280;66014;53.134;18.006;2023-07-28T00:41:20;99989.16;;;17.96;56.11
77086;BME280;66014;53.134;18.006;2023-07-28T00:43:46;99981.90;;;17.94;56.39
77086;BME280;66014;53.134;18.006;2023-07-28T00:46:12;99982.00;;;17.91;56.58
77086;BME280;66014;53.134;18.006;2023-07-28T00:48:39;99979.95;;;17.88;56.77
77086;BME280;66014;53.134;18.006;2023-07-28T00:51:07;99975.80;;;17.85;56.59
77086;BME280;66014;53.134;18.006;2023-07-28T00:53:33;99965.79;;;17.82;57.13
77086;BME280;66014;53.134;18.006;2023-07-28T00:56:00;99962.22;;;17.79;57.30
77086;BME280;66014;53.134;18.006;2023-07-28T00:58:27;99957.94;;;17.74;57.93
77086;BME280;66014;53.134;18.006;2023-07-28T01:00:53;99956.23;;;17.69;57.93
77086;BME280;66014;53.134;18.006;2023-07-28T01:03:20;99951.72;;;17.65;58.11
77086;BME280;66014;53.134;18.006;2023-07-28T01:06:01;99946.84;;;17.60;58.55
77086;BME280;66014;53.134;18.006;2023-07-28T01:11:06;99942.94;;;17.54;58.76
77086;BME280;66014;53.134;18.006;2023-07-28T01:13:32;99943.80;;;17.51;58.86
77086;BME280;66014;53.134;18.006;2023-07-28T01:15:58;99943.38;;;17.48;58.98
77086;BME280;66014;53.134;18.006;2023-07-28T01:18:27;99943.00;;;17.46;59.36
77086;BME280;66014;53.134;18.006;2023-07-28T01:20:56;99937.52;;;17.43;59.49
77086;BME280;66014;53.134;18.006;2023-07-28T01:23:44;99938.95;;;17.42;59.25
77086;BME280;66014;53.134;18.006;2023-07-28T01:26:15;99933.89;;;17.42;59.52
77086;BME280;66014;53.134;18.006;2023-07-28T01:28:43;99932.45;;;17.44;59.48
77086;BME280;66014;53.134;18.006;2023-07-28T01:31:09;99931.91;;;17.44;59.56
77086;BME280;66014;53.134;18.006;2023-07-28T01:33:36;99927.67;;;17.44;59.37
77086;BME280;66014;53.134;18.006;2023-07-28T01:36:03;99926.63;;;17.45;59.49
77086;BME280;66014;53.134;18.006;2023-07-28T01:38:29;99924.96;;;17.46;59.57
77086;BME280;66014;53.134;18.006;2023-07-28T01:40:55;99926.84;;;17.45;59.57
77086;BME280;66014;53.134;18.006;2023-07-28T01:43:21;99925.89;;;17.43;59.99
77086;BME280;66014;53.134;18.006;2023-07-28T01:45:47;99923.06;;;17.42;59.85
77086;BME280;66014;53.134;18.006;2023-07-28T01:48:13;99917.02;;;17.39;59.96
77086;BME280;66014;53.134;18.006;2023-07-28T01:50:38;99912.93;;;17.38;60.00
77086;BME280;66014;53.134;18.006;2023-07-28T01:53:07;99914.75;;;17.37;60.20
77086;BME280;66014;53.134;18.006;2023-07-28T01:55:33;99917.23;;;17.37;60.28
77086;BME280;66014;53.134;18.006;2023-07-28T01:58:00;99915.41;;;17.35;60.45
77086;BME280;66014;53.134;18.006;2023-07-28T02:00:27;99909.83;;;17.33;60.67
77086;BME280;66014;53.134;18.006;2023-07-28T02:02:54;99903.39;;;17.31;60.81
77086;BME280;66014;53.134;18.006;2023-07-28T02:05:21;99903.61;;;17.29;61.18
77086;BME280;66014;53.134;18.006;2023-07-28T02:07:47;99895.23;;;17.27;61.15
77086;BME280;66014;53.134;18.006;2023-07-28T02:10:13;99888.95;;;17.25;61.32
77086;BME280;66014;53.134;18.006;2023-07-28T02:12:39;99887.44;;;17.22;61.69
77086;BME280;66014;53.134;18.006;2023-07-28T02:15:06;99882.57;;;17.19;61.40
77086;BME280;66014;53.134;18.006;2023-07-28T02:17:32;99883.59;;;17.18;61.90
77086;BME280;66014;53.134;18.006;2023-07-28T02:19:58;99881.20;;;17.16;61.86
77086;BME280;66014;53.134;18.006;2023-07-28T02:22:24;99878.40;;;17.17;61.89
77086;BME280;66014;53.134;18.006;2023-07-28T02:24:50;99875.60;;;17.16;62.21
77086;BME280;66014;53.134;18.006;2023-07-28T02:27:16;99879.59;;;17.14;62.47
77086;BME280;66014;53.134;18.006;2023-07-28T02:29:42;99879.73;;;17.11;62.52
77086;BME280;66014;53.134;18.006;2023-07-28T02:32:08;99880.15;;;17.10;62.78
77086;BME280;66014;53.134;18.006;2023-07-28T02:34:36;99878.77;;;17.11;62.59
77086;BME280;66014;53.134;18.006;2023-07-28T02:37:02;99876.09;;;17.11;62.66
77086;BME280;66014;53.134;18.006;2023-07-28T02:39:28;99872.25;;;17.10;62.78
77086;BME280;66014;53.134;18.006;2023-07-28T02:41:54;99873.00;;;17.10;63.17
77086;BME280;66014;53.134;18.006;2023-07-28T02:44:20;99872.38;;;17.09;63.03
77086;BME280;66014;53.134;18.006;2023-07-28T02:46:46;99874.58;;;17.09;63.03
77086;BME280;66014;53.134;18.006;2023-07-28T02:49:12;99872.24;;;17.11;63.30
77086;BME280;66014;53.134;18.006;2023-07-28T02:51:38;99869.79;;;17.11;63.01
77086;BME280;66014;53.134;18.006;2023-07-28T02:54:05;99865.10;;;17.14;62.91
77086;BME280;66014;53.134;18.006;2023-07-28T02:56:30;99865.81;;;17.17;62.80
77086;BME280;66014;53.134;18.006;2023-07-28T02:59:00;99866.59;;;17.21;62.99
77086;BME280;66014;53.134;18.006;2023-07-28T03:01:30;99866.42;;;17.23;63.05
77086;BME280;66014;53.134;18.006;2023-07-28T03:04:01;99868.56;;;17.22;63.26
77086;BME280;66014;53.134;18.006;2023-07-28T03:06:29;99874.76;;;17.19;63.98
77086;BME280;66014;53.134;18.006;2023-07-28T03:08:54;99866.70;;;17.13;64.37
77086;BME280;66014;53.134;18.006;2023-07-28T03:11:22;99864.35;;;17.06;64.59
77086;BME280;66014;53.134;18.006;2023-07-28T03:13:48;99865.23;;;17.03;64.73
77086;BME280;66014;53.134;18.006;2023-07-28T03:16:13;99864.89;;;17.01;64.81
77086;BME280;66014;53.134;18.006;2023-07-28T03:18:39;99862.49;;;16.99;65.26
77086;BME280;66014;53.134;18.006;2023-07-28T03:21:05;99854.16;;;16.97;64.74
77086;BME280;66014;53.134;18.006;2023-07-28T03:23:31;99855.24;;;16.98;64.69
77086;BME280;66014;53.134;18.006;2023-07-28T03:25:57;99855.04;;;16.98;64.65
77086;BME280;66014;53.134;18.006;2023-07-28T03:28:23;99854.40;;;16.98;64.71
77086;BME280;66014;53.134;18.006;2023-07-28T03:30:48;99854.27;;;16.97;64.74
77086;BME280;66014;53.134;18.006;2023-07-28T03:33:14;99854.08;;;16.96;64.62
77086;BME280;66014;53.134;18.006;2023-07-28T03:35:40;99852.12;;;16.97;64.67
77086;BME280;66014;53.134;18.006;2023-07-28T03:38:06;99850.94;;;17.00;64.79
77086;BME280;66014;53.134;18.006;2023-07-28T03:40:32;99848.61;;;16.99;64.74
77086;BME280;66014;53.134;18.006;2023-07-28T03:42:58;99847.98;;;16.98;64.90
77086;BME280;66014;53.134;18.006;2023-07-28T03:45:26;99849.13;;;16.98;65.04
77086;BME280;66014;53.134;18.006;2023-07-28T03:47:52;99844.89;;;16.96;65.05
77086;BME280;66014;53.134;18.006;2023-07-28T03:50:18;99845.81;;;16.96;65.12
77086;BME280;66014;53.134;18.006;2023-07-28T03:52:43;99846.61;;;16.96;65.13
77086;BME280;66014;53.134;18.006;2023-07-28T03:55:09;99843.59;;;16.96;65.42
77086;BME280;66014;53.134;18.006;2023-07-28T03:57:35;99839.33;;;16.95;65.44
77086;BME280;66014;53.134;18.006;2023-07-28T04:00:01;99838.54;;;16.96;65.62
77086;BME280;66014;53.134;18.006;2023-07-28T04:02:28;99838.48;;;16.96;65.83
77086;BME280;66014;53.134;18.006;2023-07-28T04:04:55;99839.09;;;16.94;66.47
77086;BME280;66014;53.134;18.006;2023-07-28T04:07:21;99835.50;;;16.87;67.43
77086;BME280;66014;53.134;18.006;2023-07-28T04:09:47;99832.48;;;16.78;67.62
77086;BME280;66014;53.134;18.006;2023-07-28T04:12:13;99833.21;;;16.75;67.76
77086;BME280;66014;53.134;18.006;2023-07-28T04:14:39;99828.09;;;16.72;68.00
77086;BME280;66014;53.134;18.006;2023-07-28T04:17:06;99829.39;;;16.70;67.84
77086;BME280;66014;53.134;18.006;2023-07-28T04:19:33;99826.46;;;16.67;67.91
77086;BME280;66014;53.134;18.006;2023-07-28T04:22:02;99824.63;;;16.63;68.37
77086;BME280;66014;53.134;18.006;2023-07-28T04:24:28;99825.48;;;16.61;68.37
77086;BME280;66014;53.134;18.006;2023-07-28T04:26:54;99823.58;;;16.62;68.64
77086;BME280;66014;53.134;18.006;2023-07-28T04:29:20;99818.04;;;16.60;68.63
77086;BME280;66014;53.134;18.006;2023-07-28T04:31:45;99815.17;;;16.59;68.37
77086;BME280;66014;53.134;18.006;2023-07-28T04:34:14;99814.65;;;16.60;68.79
77086;BME280;66014;53.134;18.006;2023-07-28T04:36:49;99814.64;;;16.59;68.99
77086;BME280;66014;53.134;18.006;2023-07-28T04:39:16;99814.40;;;16.58;69.10
77086;BME280;66014;53.134;18.006;2023-07-28T04:41:42;99812.77;;;16.57;69.76
77086;BME280;66014;53.134;18.006;2023-07-28T04:44:08;99812.63;;;16.56;69.84
77086;BME280;66014;53.134;18.006;2023-07-28T04:46:33;99811.34;;;16.56;69.94
77086;BME280;66014;53.134;18.006;2023-07-28T04:48:59;99811.23;;;16.57;70.17
77086;BME280;66014;53.134;18.006;2023-07-28T04:51:28;99808.63;;;16.59;70.93
77086;BME280;66014;53.134;18.006;2023-07-28T04:53:54;99809.14;;;16.57;71.11
77086;BME280;66014;53.134;18.006;2023-07-28T04:56:19;99804.48;;;16.55;71.66
77086;BME280;66014;53.134;18.006;2023-07-28T04:58:45;99798.02;;;16.53;71.84
77086;BME280;66014;53.134;18.006;2023-07-28T05:01:11;99797.91;;;16.51;72.12
77086;BME280;66014;53.134;18.006;2023-07-28T05:03:38;99793.62;;;16.49;72.53
77086;BME280;66014;53.134;18.006;2023-07-28T05:06:04;99795.94;;;16.47;72.10
77086;BME280;66014;53.134;18.006;2023-07-28T05:08:33;99792.55;;;16.47;72.61
77086;BME280;66014;53.134;18.006;2023-07-28T05:10:58;99792.02;;;16.44;73.01
77086;BME280;66014;53.134;18.006;2023-07-28T05:13:26;99792.34;;;16.45;72.36
77086;BME280;66014;53.134;18.006;2023-07-28T05:15:52;99790.66;;;16.47;73.02
77086;BME280;66014;53.134;18.006;2023-07-28T05:18:17;99795.54;;;16.48;72.89
77086;BME280;66014;53.134;18.006;2023-07-28T05:20:43;99794.67;;;16.48;72.95
77086;BME280;66014;53.134;18.006;2023-07-28T05:23:09;99794.44;;;16.47;72.73
77086;BME280;66014;53.134;18.006;2023-07-28T05:25:36;99792.04;;;16.45;72.94
77086;BME280;66014;53.134;18.006;2023-07-28T05:28:02;99796.60;;;16.44;72.92
77086;BME280;66014;53.134;18.006;2023-07-28T05:30:31;99792.41;;;16.43;72.84
77086;BME280;66014;53.134;18.006;2023-07-28T05:32:57;99791.62;;;16.43;72.75
77086;BME280;66014;53.134;18.006;2023-07-28T05:35:25;99787.70;;;16.46;72.60
77086;BME280;66014;53.134;18.006;2023-07-28T05:37:51;99784.42;;;16.51;72.70
77086;BME280;66014;53.134;18.006;2023-07-28T05:40:17;99788.23;;;16.56;72.85
77086;BME280;66014;53.134;18.006;2023-07-28T05:42:42;99785.05;;;16.60;72.88
77086;BME280;66014;53.134;18.006;2023-07-28T05:45:09;99785.70;;;16.60;73.10
77086;BME280;66014;53.134;18.006;2023-07-28T05:47:35;99788.05;;;16.57;73.42
77086;BME280;66014;53.134;18.006;2023-07-28T05:50:01;99787.68;;;16.52;74.37
77086;BME280;66014;53.134;18.006;2023-07-28T05:52:26;99783.91;;;16.44;74.46
77086;BME280;66014;53.134;18.006;2023-07-28T05:54:52;99783.08;;;16.37;74.69
77086;BME280;66014;53.134;18.006;2023-07-28T05:57:18;99780.27;;;16.27;75.38
77086;BME280;66014;53.134;18.006;2023-07-28T05:59:44;99775.36;;;16.17;76.01
77086;BME280;66014;53.134;18.006;2023-07-28T06:02:10;99781.23;;;16.06;76.64
77086;BME280;66014;53.134;18.006;2023-07-28T06:04:35;99783.06;;;15.95;77.03
77086;BME280;66014;53.134;18.006;2023-07-28T06:07:02;99785.81;;;15.85;77.79
77086;BME280;66014;53.134;18.006;2023-07-28T06:09:28;99781.91;;;15.74;78.54
77086;BME280;66014;53.134;18.006;2023-07-28T06:11:54;99782.60;;;15.65;78.77
77086;BME280;66014;53.134;18.006;2023-07-28T06:14:20;99782.15;;;15.59;79.07
77086;BME280;66014;53.134;18.006;2023-07-28T06:16:48;99780.93;;;15.53;79.41
77086;BME280;66014;53.134;18.006;2023-07-28T06:19:14;99778.83;;;15.50;80.31
77086;BME280;66014;53.134;18.006;2023-07-28T06:21:41;99778.58;;;15.45;81.03
77086;BME280;66014;53.134;18.006;2023-07-28T06:24:08;99781.17;;;15.39;81.42
77086;BME280;66014;53.134;18.006;2023-07-28T06:26:34;99783.05;;;15.35;81.41
77086;BME280;66014;53.134;18.006;2023-07-28T06:29:00;99784.23;;;15.37;81.86
77086;BME280;66014;53.134;18.006;2023-07-28T06:31:26;99784.02;;;15.39;81.79
77086;BME280;66014;53.134;18.006;2023-07-28T06:33:52;99777.64;;;15.39;81.87
77086;BME280;66014;53.134;18.006;2023-07-28T06:36:18;99774.10;;;15.41;82.40
77086;BME280;66014;53.134;18.006;2023-07-28T06:38:43;99775.45;;;15.42;82.62
77086;BME280;66014;53.134;18.006;2023-07-28T06:41:12;99775.55;;;15.44;82.86
77086;BME280;66014;53.134;18.006;2023-07-28T06:43:38;99770.16;;;15.45;82.72
77086;BME280;66014;53.134;18.006;2023-07-28T06:46:04;99766.63;;;15.45;82.95
77086;BME280;66014;53.134;18.006;2023-07-28T06:48:29;99764.20;;;15.45;82.99
77086;BME280;66014;53.134;18.006;2023-07-28T06:50:56;99754.55;;;15.45;83.00
77086;BME280;66014;53.134;18.006;2023-07-28T06:53:21;99750.09;;;15.46;83.19
77086;BME280;66014;53.134;18.006;2023-07-28T06:55:47;99754.05;;;15.46;83.12
77086;BME280;66014;53.134;18.006;2023-07-28T06:58:13;99752.50;;;15.48;83.50
77086;BME280;66014;53.134;18.006;2023-07-28T07:00:39;99745.88;;;15.54;83.42
77086;BME280;66014;53.134;18.006;2023-07-28T07:03:05;99752.21;;;15.63;83.45
77086;BME280;66014;53.134;18.006;2023-07-28T07:05:31;99748.59;;;15.72;83.47
77086;BME280;66014;53.134;18.006;2023-07-28T07:07:57;99750.17;;;15.86;83.59
77086;BME280;66014;53.134;18.006;2023-07-28T07:10:23;99754.81;;;15.92;83.31
77086;BME280;66014;53.134;18.006;2023-07-28T07:12:50;99759.58;;;16.01;83.37
77086;BME280;66014;53.134;18.006;2023-07-28T07:15:17;99761.23;;;16.00;83.08
77086;BME280;66014;53.134;18.006;2023-07-28T07:17:43;99760.11;;;15.98;83.13
77086;BME280;66014;53.134;18.006;2023-07-28T07:20:10;99762.32;;;15.97;83.43
77086;BME280;66014;53.134;18.006;2023-07-28T07:22:36;99763.20;;;15.91;83.32
77086;BME280;66014;53.134;18.006;2023-07-28T07:25:03;99763.58;;;15.89;83.50
77086;BME280;66014;53.134;18.006;2023-07-28T07:27:29;99767.53;;;15.90;83.79
77086;BME280;66014;53.134;18.006;2023-07-28T07:29:56;99769.44;;;15.91;83.92
77086;BME280;66014;53.134;18.006;2023-07-28T07:32:23;99768.63;;;15.93;83.84
77086;BME280;66014;53.134;18.006;2023-07-28T07:34:49;99768.54;;;15.94;83.70
77086;BME280;66014;53.134;18.006;2023-07-28T07:37:19;99773.35;;;15.95;83.91
77086;BME280;66014;53.134;18.006;2023-07-28T07:39:45;99765.05;;;15.98;84.13
77086;BME280;66014;53.134;18.006;2023-07-28T07:42:10;99763.08;;;15.99;84.34
77086;BME280;66014;53.134;18.006;2023-07-28T07:44:43;99764.05;;;16.00;84.34
77086;BME280;66014;53.134;18.006;2023-07-28T07:47:14;99768.41;;;16.00;84.68
77086;BME280;66014;53.134;18.006;2023-07-28T07:49:41;99768.95;;;15.99;84.39
77086;BME280;66014;53.134;18.006;2023-07-28T07:52:07;99762.34;;;15.99;84.54
77086;BME280;66014;53.134;18.006;2023-07-28T07:54:34;99766.11;;;16.00;84.42
77086;BME280;66014;53.134;18.006;2023-07-28T07:57:00;99768.42;;;16.03;84.72
77086;BME280;66014;53.134;18.006;2023-07-28T07:59:26;99769.64;;;16.06;84.51
77086;BME280;66014;53.134;18.006;2023-07-28T08:01:54;99768.67;;;16.11;84.51
77086;BME280;66014;53.134;18.006;2023-07-28T08:04:20;99766.00;;;16.18;84.78
77086;BME280;66014;53.134;18.006;2023-07-28T08:06:46;99761.39;;;16.19;84.76
77086;BME280;66014;53.134;18.006;2023-07-28T08:09:12;99752.52;;;16.18;84.68
77086;BME280;66014;53.134;18.006;2023-07-28T08:11:39;99762.63;;;16.21;84.87
77086;BME280;66014;53.134;18.006;2023-07-28T08:14:05;99765.58;;;16.23;84.78
77086;BME280;66014;53.134;18.006;2023-07-28T08:16:31;99772.36;;;16.22;84.80
77086;BME280;66014;53.134;18.006;2023-07-28T08:18:58;99773.63;;;16.21;84.52
77086;BME280;66014;53.134;18.006;2023-07-28T08:21:24;99772.44;;;16.23;84.82
77086;BME280;66014;53.134;18.006;2023-07-28T08:23:52;99770.77;;;16.27;84.74
77086;BME280;66014;53.134;18.006;2023-07-28T08:26:17;99772.24;;;16.31;84.66
77086;BME280;66014;53.134;18.006;2023-07-28T08:28:44;99766.18;;;16.36;84.82
77086;BME280;66014;53.134;18.006;2023-07-28T08:31:14;99767.08;;;16.44;85.00
77086;BME280;66014;53.134;18.006;2023-07-28T08:34:00;99767.71;;;16.53;84.99
77086;BME280;66014;53.134;18.006;2023-07-28T08:36:34;99773.36;;;16.61;84.88
77086;BME280;66014;53.134;18.006;2023-07-28T08:40:02;99779.53;;;16.71;85.03
77086;BME280;66014;53.134;18.006;2023-07-28T08:42:36;99779.98;;;16.82;85.07
77086;BME280;66014;53.134;18.006;2023-07-28T08:45:03;99779.80;;;16.92;85.39
77086;BME280;66014;53.134;18.006;2023-07-28T08:47:34;99775.16;;;16.96;85.29
77086;BME280;66014;53.134;18.006;2023-07-28T08:50:00;99776.51;;;16.99;84.95
77086;BME280;66014;53.134;18.006;2023-07-28T08:52:29;99773.71;;;17.02;85.00
77086;BME280;66014;53.134;18.006;2023-07-28T08:54:56;99770.52;;;17.06;84.92
77086;BME280;66014;53.134;18.006;2023-07-28T08:57:22;99765.85;;;17.12;84.97
77086;BME280;66014;53.134;18.006;2023-07-28T08:59:49;99760.62;;;17.18;84.77
77086;BME280;66014;53.134;18.006;2023-07-28T09:02:19;99758.62;;;17.26;84.83
77086;BME280;66014;53.134;18.006;2023-07-28T09:04:49;99755.44;;;17.37;84.72
77086;BME280;66014;53.134;18.006;2023-07-28T09:07:16;99757.64;;;17.48;84.47
77086;BME280;66014;53.134;18.006;2023-07-28T09:09:42;99758.70;;;17.53;84.13
77086;BME280;66014;53.134;18.006;2023-07-28T09:12:10;99756.83;;;17.57;83.94
77086;BME280;66014;53.134;18.006;2023-07-28T09:14:37;99754.67;;;17.69;83.78
77086;BME280;66014;53.134;18.006;2023-07-28T09:17:12;99751.11;;;17.86;83.74
77086;BME280;66014;53.134;18.006;2023-07-28T09:19:53;99751.48;;;17.95;83.69
77086;BME280;66014;53.134;18.006;2023-07-28T09:22:20;99750.71;;;18.01;83.78
77086;BME280;66014;53.134;18.006;2023-07-28T09:25:14;99749.91;;;18.05;83.60
77086;BME280;66014;53.134;18.006;2023-07-28T09:28:04;99750.52;;;18.03;83.58
77086;BME280;66014;53.134;18.006;2023-07-28T09:31:04;99751.98;;;18.03;83.47
77086;BME280;66014;53.134;18.006;2023-07-28T09:33:35;99751.27;;;18.07;83.91
77086;BME280;66014;53.134;18.006;2023-07-28T09:40:08;99750.02;;;18.15;83.81
77086;BME280;66014;53.134;18.006;2023-07-28T09:42:41;99756.23;;;18.19;84.12
77086;BME280;66014;53.134;18.006;2023-07-28T09:45:17;99754.77;;;18.20;83.99
77086;BME280;66014;53.134;18.006;2023-07-28T09:47:51;99756.96;;;18.23;83.72
77086;BME280;66014;53.134;18.006;2023-07-28T09:50:23;99758.50;;;18.26;83.84
77086;BME280;66014;53.134;18.006;2023-07-28T09:52:54;99755.60;;;18.32;83.91
77086;BME280;66014;53.134;18.006;2023-07-28T09:55:29;99752.61;;;18.42;84.04
77086;BME280;66014;53.134;18.006;2023-07-28T09:58:15;99748.88;;;18.51;83.88
77086;BME280;66014;53.134;18.006;2023-07-28T10:00:58;99746.90;;;18.62;83.93
77086;BME280;66014;53.134;18.006;2023-07-28T10:03:54;99743.10;;;18.73;83.61
77086;BME280;66014;53.134;18.006;2023-07-28T10:06:28;99742.70;;;18.84;83.56
77086;BME280;66014;53.134;18.006;2023-07-28T10:08:59;99743.38;;;18.93;83.72
77086;BME280;66014;53.134;18.006;2023-07-28T10:11:29;99742.86;;;18.99;83.59
77086;BME280;66014;53.134;18.006;2023-07-28T10:14:08;99742.27;;;19.08;83.52
77086;BME280;66014;53.134;18.006;2023-07-28T10:16:53;99737.69;;;19.14;83.30
77086;BME280;66014;53.134;18.006;2023-07-28T10:19:39;99737.73;;;19.21;83.23
77086;BME280;66014;53.134;18.006;2023-07-28T10:22:14;99736.98;;;19.32;83.27
77086;BME280;66014;53.134;18.006;2023-07-28T10:25:03;99737.42;;;19.51;83.08
77086;BME280;66014;53.134;18.006;2023-07-28T10:27:50;99736.27;;;19.75;82.88
77086;BME280;66014;53.134;18.006;2023-07-28T10:30:30;99735.48;;;19.99;82.36
77086;BME280;66014;53.134;18.006;2023-07-28T10:33:26;99735.22;;;20.21;82.12
77086;BME280;66014;53.134;18.006;2023-07-28T10:39:16;99732.52;;;20.51;81.28
77086;BME280;66014;53.134;18.006;2023-07-28T10:42:08;99734.29;;;20.62;80.50
77086;BME280;66014;53.134;18.006;2023-07-28T10:45:41;99732.79;;;21.06;80.16
77086;BME280;66014;53.134;18.006;2023-07-28T10:48:23;99730.78;;;21.31;79.69
77086;BME280;66014;53.134;18.006;2023-07-28T10:50:50;99734.13;;;21.21;79.79
77086;BME280;66014;53.134;18.006;2023-07-28T10:53:16;99737.69;;;21.14;79.74
77086;BME280;66014;53.134;18.006;2023-07-28T10:55:42;99736.00;;;21.09;79.85
77086;BME280;66014;53.134;18.006;2023-07-28T10:58:12;99739.23;;;21.06;79.91
77086;BME280;66014;53.134;18.006;2023-07-28T11:00:39;99745.00;;;20.98;79.66
77086;BME280;66014;53.134;18.006;2023-07-28T11:03:08;99746.96;;;20.89;79.84
77086;BME280;66014;53.134;18.006;2023-07-28T11:05:36;99755.64;;;20.84;80.29
77086;BME280;66014;53.134;18.006;2023-07-28T11:08:03;99754.64;;;21.03;79.62
77086;BME280;66014;53.134;18.006;2023-07-28T11:10:35;99755.08;;;22.19;78.09
77086;BME280;66014;53.134;18.006;2023-07-28T11:13:05;99760.59;;;23.26;76.00
77086;BME280;66014;53.134;18.006;2023-07-28T11:15:55;99757.86;;;24.23;74.37
77086;BME280;66014;53.134;18.006;2023-07-28T11:18:46;99756.49;;;24.34;71.51
77086;BME280;66014;53.134;18.006;2023-07-28T11:21:22;99762.98;;;24.17;71.32
77086;BME280;66014;53.134;18.006;2023-07-28T11:23:49;99767.61;;;23.98;71.84
77086;BME280;66014;53.134;18.006;2023-07-28T11:26:19;99769.16;;;25.10;69.81
77086;BME280;66014;53.134;18.006;2023-07-28T11:29:12;99762.95;;;24.76;68.90
77086;BME280;66014;53.134;18.006;2023-07-28T11:32:01;99757.84;;;25.35;68.80
77086;BME280;66014;53.134;18.006;2023-07-28T11:35:08;99753.88;;;27.93;65.04
77086;BME280;66014;53.134;18.006;2023-07-28T11:37:36;99747.47;;;30.48;60.78
77086;BME280;66014;53.134;18.006;2023-07-28T11:40:05;99749.41;;;31.93;58.50
77086;BME280;66014;53.134;18.006;2023-07-28T11:42:43;99754.30;;;32.15;55.53
77086;BME280;66014;53.134;18.006;2023-07-28T11:45:10;99755.48;;;30.74;56.97
77086;BME280;66014;53.134;18.006;2023-07-28T11:47:37;99752.00;;;30.06;55.60
77086;BME280;66014;53.134;18.006;2023-07-28T11:50:04;99748.68;;;31.30;55.16
77086;BME280;66014;53.134;18.006;2023-07-28T11:52:31;99754.80;;;31.01;54.69
77086;BME280;66014;53.134;18.006;2023-07-28T11:55:01;99756.34;;;32.67;52.37
77086;BME280;66014;53.134;18.006;2023-07-28T11:57:31;99753.87;;;33.22;49.56
77086;BME280;66014;53.134;18.006;2023-07-28T11:59:59;99750.89;;;33.47;49.00
77086;BME280;66014;53.134;18.006;2023-07-28T12:02:27;99751.47;;;34.05;47.20
77086;BME280;66014;53.134;18.006;2023-07-28T12:04:54;99755.08;;;33.56;46.79
77086;BME280;66014;53.134;18.006;2023-07-28T12:07:33;99753.89;;;32.26;47.72
77086;BME280;66014;53.134;18.006;2023-07-28T12:10:04;99755.48;;;30.79;48.82
77086;BME280;66014;53.134;18.006;2023-07-28T12:12:41;99762.52;;;29.57;49.71
77086;BME280;66014;53.134;18.006;2023-07-28T12:15:29;99761.29;;;28.90;50.12
77086;BME280;66014;53.134;18.006;2023-07-28T12:18:16;99762.42;;;29.64;49.90
77086;BME280;66014;53.134;18.006;2023-07-28T12:20:47;99761.92;;;32.07;46.72
77086;BME280;66014;53.134;18.006;2023-07-28T12:23:19;99761.27;;;33.68;44.48
77086;BME280;66014;53.134;18.006;2023-07-28T12:26:21;99761.42;;;34.83;41.39
77086;BME280;66014;53.134;18.006;2023-07-28T12:29:16;99752.59;;;34.74;37.28
77086;BME280;66014;53.134;18.006;2023-07-28T12:32:21;99753.14;;;33.82;39.61
77086;BME280;66014;53.134;18.006;2023-07-28T12:35:17;99750.99;;;31.89;41.20
77086;BME280;66014;53.134;18.006;2023-07-28T12:37:43;99745.96;;;30.54;43.27
77086;BME280;66014;53.134;18.006;2023-07-28T12:40:12;99751.88;;;29.59;45.01
77086;BME280;66014;53.134;18.006;2023-07-28T12:42:47;99754.52;;;29.04;46.05
77086;BME280;66014;53.134;18.006;2023-07-28T12:45:15;99751.55;;;28.63;47.60
77086;BME280;66014;53.134;18.006;2023-07-28T12:48:19;99753.93;;;28.15;48.66
77086;BME280;66014;53.134;18.006;2023-07-28T12:50:51;99758.12;;;27.83;49.39
77086;BME280;66014;53.134;18.006;2023-07-28T12:53:43;99758.47;;;27.36;50.17
77086;BME280;66014;53.134;18.006;2023-07-28T12:56:18;99762.40;;;26.77;51.29
77086;BME280;66014;53.134;18.006;2023-07-28T12:59:10;99763.80;;;26.18;52.83
77086;BME280;66014;53.134;18.006;2023-07-28T13:01:57;99775.58;;;25.69;53.51
77086;BME280;66014;53.134;18.006;2023-07-28T13:04:24;99783.21;;;25.36;53.85
77086;BME280;66014;53.134;18.006;2023-07-28T13:06:52;99789.71;;;25.17;54.23
77086;BME280;66014;53.134;18.006;2023-07-28T13:09:18;99785.10;;;25.20;54.42
77086;BME280;66014;53.134;18.006;2023-07-28T13:11:45;99787.86;;;25.42;53.69
77086;BME280;66014;53.134;18.006;2023-07-28T13:14:25;99787.15;;;25.65;53.35
77086;BME280;66014;53.134;18.006;2023-07-28T13:16:52;99790.05;;;25.85;52.78